createdAt,value
2022-09-12T00:01:25.876Z,71.66
2022-09-12T00:03:56.143Z,71.61
2022-09-12T00:06:33.446Z,71.49
2022-09-12T00:09:04.895Z,71.53
2022-09-12T00:11:35.017Z,71.77
2022-09-12T00:14:03.636Z,72.01
2022-09-12T00:16:34.442Z,71.91
2022-09-12T00:19:03.629Z,71.93
2022-09-12T00:21:34.268Z,72.23
2022-09-12T00:24:02.535Z,72.15
2022-09-12T00:26:30.910Z,72.53
2022-09-12T00:28:58.782Z,72.46
2022-09-12T00:31:27.453Z,73.13
2022-09-12T00:34:00.962Z,73.11
2022-09-12T00:36:30.619Z,72.81
2022-09-12T00:38:59.000Z,73.20
2022-09-12T00:41:38.790Z,73.34
2022-09-12T00:44:26.699Z,73.28
2022-09-12T00:47:10.876Z,73.56
2022-09-12T00:50:03.523Z,73.55
2022-09-12T00:52:41.627Z,73.87
2022-09-12T00:55:18.707Z,74.14
2022-09-12T00:57:51.891Z,74.13
2022-09-12T01:00:23.461Z,73.83
2022-09-12T01:02:56.816Z,74.14
2022-09-12T01:05:26.660Z,74.13
2022-09-12T01:07:57.080Z,74.04
2022-09-12T01:10:25.160Z,74.47
2022-09-12T01:12:53.221Z,74.40
2022-09-12T01:15:21.091Z,74.91
2022-09-12T01:18:12.833Z,74.81
2022-09-12T01:20:50.611Z,74.82
2022-09-12T01:23:48.633Z,74.65
2022-09-12T01:26:38.059Z,75.17
2022-09-12T01:29:41.901Z,75.50
2022-09-12T01:32:32.565Z,75.36
2022-09-12T01:35:34.226Z,75.15
2022-09-12T01:38:17.653Z,75.43
2022-09-12T01:40:56.269Z,75.44
2022-09-12T01:43:35.501Z,75.40
2022-09-12T01:46:18.009Z,75.53
2022-09-12T01:49:00.419Z,75.63
2022-09-12T01:51:33.922Z,76.02
2022-09-12T01:54:12.804Z,76.15
2022-09-12T01:56:44.089Z,75.81
2022-09-12T01:59:22.089Z,76.42
2022-09-12T02:02:03.098Z,76.53
2022-09-12T02:04:48.965Z,76.59
2022-09-12T02:07:27.569Z,76.46
2022-09-12T02:10:04.378Z,76.61
2022-09-12T02:12:49.925Z,76.56
2022-09-12T02:15:21.172Z,76.85
2022-09-12T02:17:52.821Z,76.85
2022-09-12T02:20:44.419Z,76.89
2022-09-12T02:23:23.677Z,77.39
2022-09-12T02:25:57.679Z,77.12
2022-09-12T02:28:31.490Z,76.68
2022-09-12T02:31:14.514Z,76.99
2022-09-12T02:34:08.797Z,76.92
2022-09-12T02:36:55.913Z,77.27
2022-09-12T02:39:24.906Z,76.97
2022-09-12T02:41:57.313Z,77.23
2022-09-12T02:44:27.290Z,77.23
2022-09-12T02:47:05.705Z,77.61
2022-09-12T02:49:33.876Z,77.37
2022-09-12T02:52:02.513Z,77.66
2022-09-12T02:54:31.222Z,77.75
2022-09-12T02:56:59.063Z,77.53
2022-09-12T02:59:27.461Z,77.72
2022-09-12T03:02:01.090Z,77.86
2022-09-12T03:04:58.241Z,77.74
2022-09-12T03:07:41.365Z,77.60
2022-09-12T03:10:24.589Z,77.97
2022-09-12T03:13:11.022Z,78.25
2022-09-12T03:16:23.456Z,78.08
2022-09-12T03:19:09.215Z,77.98
2022-09-12T03:21:54.966Z,78.33
2022-09-12T03:24:48.441Z,78.44
2022-09-12T03:27:21.498Z,78.44
2022-09-12T03:29:51.085Z,78.36
2022-09-12T03:32:19.006Z,78.59
2022-09-12T03:34:46.865Z,78.44
2022-09-12T03:37:14.845Z,78.54
2022-09-12T03:39:42.663Z,78.38
2022-09-12T03:42:10.667Z,78.49
2022-09-12T03:44:38.530Z,78.77
2022-09-12T03:47:11.027Z,78.40
2022-09-12T03:49:39.206Z,78.35
2022-09-12T03:52:07.247Z,78.73
2022-09-12T03:54:35.011Z,78.96
2022-09-12T03:57:02.875Z,78.75
2022-09-12T03:59:31.255Z,79.15
2022-09-12T04:01:59.279Z,78.99
2022-09-12T04:04:27.290Z,79.32
2022-09-12T04:06:55.379Z,79.04
2022-09-12T04:09:23.674Z,79.43
2022-09-12T04:11:51.607Z,79.18
2022-09-12T04:14:19.474Z,79.20
2022-09-12T04:16:47.291Z,79.13
2022-09-12T04:19:15.281Z,79.15
2022-09-12T04:21:43.179Z,79.45
2022-09-12T04:24:10.947Z,79.15
2022-09-12T04:26:38.702Z,79.44
2022-09-12T04:29:06.562Z,79.12
2022-09-12T04:31:34.326Z,79.76
2022-09-12T04:34:02.807Z,79.63
2022-09-12T04:36:31.222Z,79.44
2022-09-12T04:39:00.482Z,79.59
2022-09-12T04:41:31.478Z,79.52
2022-09-12T04:44:02.568Z,79.74
2022-09-12T04:46:32.886Z,79.84
2022-09-12T04:49:00.830Z,79.98
2022-09-12T04:51:31.726Z,79.94
2022-09-12T04:54:02.735Z,79.80
2022-09-12T04:56:31.386Z,79.89
2022-09-12T04:59:01.228Z,80.26
2022-09-12T05:01:30.448Z,80.34
2022-09-12T05:04:00.234Z,79.87
2022-09-12T05:06:30.876Z,80.28
2022-09-12T05:08:59.968Z,80.08
2022-09-12T05:11:59.781Z,79.81
2022-09-12T05:14:19.127Z,80.20
2022-09-12T05:16:49.366Z,80.08
2022-09-12T05:19:17.659Z,80.49
2022-09-12T05:21:45.706Z,80.30
2022-09-12T05:24:13.479Z,80.46
2022-09-12T05:26:41.335Z,80.36
2022-09-12T05:29:09.200Z,80.46
2022-09-12T05:31:37.883Z,80.45
2022-09-12T05:34:07.288Z,80.55
2022-09-12T05:36:35.254Z,80.47
2022-09-12T05:39:04.338Z,79.93
2022-09-12T05:41:34.130Z,80.07
2022-09-12T05:44:04.531Z,80.30
2022-09-12T05:46:40.397Z,80.19
2022-09-12T05:49:10.350Z,80.37
2022-09-12T05:51:41.616Z,80.35
2022-09-12T05:54:12.332Z,80.49
2022-09-12T05:56:43.235Z,80.30
2022-09-12T05:59:17.687Z,80.68
2022-09-12T06:01:45.921Z,80.58
2022-09-12T06:04:14.135Z,80.54
2022-09-12T06:06:47.000Z,80.49
2022-09-12T06:09:16.634Z,80.78
2022-09-12T06:11:45.827Z,80.37
2022-09-12T06:14:17.745Z,80.65
2022-09-12T06:16:47.254Z,80.55
2022-09-12T06:19:18.223Z,80.47
2022-09-12T06:21:48.554Z,80.68
2022-09-12T06:24:17.881Z,80.67
2022-09-12T06:26:47.843Z,80.50
2022-09-12T06:29:16.338Z,80.54
2022-09-12T06:31:44.833Z,80.51
2022-09-12T06:34:15.146Z,80.41
2022-09-12T06:36:48.371Z,80.46
2022-09-12T06:39:23.445Z,80.83
2022-09-12T06:41:52.957Z,80.52
2022-09-12T06:44:22.663Z,80.75
2022-09-12T06:46:50.856Z,80.80
2022-09-12T06:49:19.026Z,80.64
2022-09-12T06:51:47.107Z,80.64
2022-09-12T06:54:16.925Z,80.78
2022-09-12T06:56:45.227Z,80.57
2022-09-12T06:59:13.152Z,80.76
2022-09-12T07:01:42.088Z,80.79
2022-09-12T07:04:10.536Z,80.70
2022-09-12T07:06:41.393Z,80.66
2022-09-12T07:09:13.113Z,80.54
2022-09-12T07:11:42.465Z,80.67
2022-09-12T07:14:14.107Z,80.86
2022-09-12T07:16:42.395Z,80.95
2022-09-12T07:19:10.930Z,81.03
2022-09-12T07:21:41.786Z,80.74
2022-09-12T07:24:11.107Z,81.17
2022-09-12T07:26:42.496Z,81.17
2022-09-12T07:29:35.904Z,80.93
2022-09-12T07:32:05.675Z,81.07
2022-09-12T07:34:34.481Z,81.17
2022-09-12T07:37:02.542Z,81.12
2022-09-12T07:39:30.321Z,80.82
2022-09-12T07:41:58.888Z,80.87
2022-09-12T07:44:28.289Z,81.16
2022-09-12T07:46:56.079Z,81.27
2022-09-12T07:49:24.332Z,81.40
2022-09-12T07:51:52.093Z,81.24
2022-09-12T07:54:20.443Z,81.24
2022-09-12T07:56:48.338Z,81.05
2022-09-12T07:59:29.988Z,81.20
2022-09-12T08:02:04.201Z,81.14
2022-09-12T08:04:32.122Z,81.21
2022-09-12T08:06:59.968Z,81.15
2022-09-12T08:09:27.732Z,81.26
2022-09-12T08:11:55.495Z,81.29
2022-09-12T08:14:23.462Z,81.27
2022-09-12T08:16:51.332Z,81.12
2022-09-12T08:19:19.765Z,81.20
2022-09-12T08:21:47.500Z,81.20
2022-09-12T08:24:16.051Z,80.97
2022-09-12T08:26:43.935Z,81.05
2022-09-12T08:29:12.243Z,81.04
2022-09-12T08:31:41.593Z,80.97
2022-09-12T08:34:10.085Z,81.04
2022-09-12T08:36:37.939Z,81.09
2022-09-12T08:39:07.861Z,81.03
2022-09-12T08:41:47.906Z,81.00
2022-09-12T08:44:21.786Z,80.95
2022-09-12T08:46:49.572Z,80.75
2022-09-12T08:49:29.123Z,80.81
2022-09-12T08:52:00.872Z,80.71
2022-09-12T08:54:30.870Z,80.58
2022-09-12T08:57:04.001Z,80.62
2022-09-12T08:59:39.913Z,80.56
2022-09-12T09:02:46.199Z,80.62
2022-09-12T09:05:43.550Z,80.38
2022-09-12T09:08:40.199Z,80.26
2022-09-12T09:11:29.161Z,79.97
2022-09-12T09:14:50.576Z,80.16
2022-09-12T09:17:40.286Z,80.20
2022-09-12T09:20:43.854Z,79.97
2022-09-12T09:23:31.074Z,79.96
2022-09-12T09:26:27.481Z,79.93
2022-09-12T09:29:11.146Z,79.87
2022-09-12T09:31:40.542Z,79.83
2022-09-12T09:34:22.135Z,79.61
2022-09-12T09:36:57.346Z,79.75
2022-09-12T09:40:27.799Z,79.39
2022-09-12T09:43:12.263Z,79.63
2022-09-12T09:45:44.548Z,79.34
2022-09-12T09:48:29.443Z,79.49
2022-09-12T09:51:00.487Z,79.10
2022-09-12T09:53:56.770Z,79.17
2022-09-12T09:56:27.390Z,79.09
2022-09-12T09:58:55.685Z,79.12
2022-09-12T10:01:24.821Z,79.14
2022-09-12T10:03:56.730Z,78.90
2022-09-12T10:06:37.099Z,78.82
2022-09-12T10:09:16.526Z,78.88
2022-09-12T10:11:46.017Z,79.10
2022-09-12T10:14:28.217Z,78.84
2022-09-12T10:16:56.804Z,78.86
2022-09-12T10:19:40.482Z,78.74
2022-09-12T10:22:18.237Z,78.72
2022-09-12T10:24:52.511Z,78.45
2022-09-12T10:27:31.377Z,78.42
2022-09-12T10:30:20.398Z,78.44
2022-09-12T10:32:53.177Z,78.05
2022-09-12T10:35:28.669Z,78.00
2022-09-12T10:38:06.873Z,78.11
2022-09-12T10:40:43.381Z,78.14
2022-09-12T10:43:34.529Z,77.82
2022-09-12T10:46:15.851Z,78.07
2022-09-12T10:48:49.338Z,77.78
2022-09-12T10:51:26.021Z,77.77
2022-09-12T10:53:57.760Z,77.34
2022-09-12T10:56:32.893Z,77.40
2022-09-12T10:59:21.857Z,77.24
2022-09-12T11:01:57.477Z,76.95
2022-09-12T11:04:43.905Z,77.01
2022-09-12T11:07:41.056Z,76.87
2022-09-12T11:10:27.464Z,76.77
2022-09-12T11:13:25.837Z,76.78
2022-09-12T11:16:08.679Z,76.84
2022-09-12T11:19:04.040Z,76.96
2022-09-12T11:21:34.697Z,76.76
2022-09-12T11:24:23.477Z,76.88
2022-09-12T11:27:20.599Z,76.83
2022-09-12T11:30:11.449Z,76.54
2022-09-12T11:33:08.964Z,76.30
2022-09-12T11:35:53.061Z,76.23
2022-09-12T11:38:47.842Z,76.15
2022-09-12T11:41:27.039Z,75.96
2022-09-12T11:44:03.799Z,75.87
2022-09-12T11:46:40.093Z,75.78
2022-09-12T11:49:14.970Z,75.93
2022-09-12T11:52:04.172Z,75.42
2022-09-12T11:54:52.840Z,75.79
2022-09-12T11:57:40.759Z,75.43
2022-09-12T12:00:19.623Z,75.57
2022-09-12T12:02:59.634Z,75.36
2022-09-12T12:05:52.157Z,75.14
2022-09-12T12:08:23.532Z,75.07
2022-09-12T12:11:00.709Z,75.46
2022-09-12T12:13:45.986Z,75.13
2022-09-12T12:16:34.944Z,75.30
2022-09-12T12:19:10.736Z,74.98
2022-09-12T12:21:40.767Z,74.93
2022-09-12T12:24:08.678Z,74.73
2022-09-12T12:26:40.026Z,74.42
2022-09-12T12:29:13.829Z,74.41
2022-09-12T12:32:00.331Z,74.48
2022-09-12T12:34:42.124Z,74.38
2022-09-12T12:37:19.307Z,74.30
2022-09-12T12:39:48.448Z,74.26
2022-09-12T12:42:35.249Z,73.69
2022-09-12T12:45:26.735Z,73.96
2022-09-12T12:48:00.349Z,74.13
2022-09-12T12:50:32.295Z,73.77
2022-09-12T12:53:03.748Z,73.78
2022-09-12T12:55:57.833Z,73.62
2022-09-12T12:58:28.968Z,72.96
2022-09-12T13:01:15.008Z,72.90
2022-09-12T13:04:05.575Z,72.55
2022-09-12T13:06:33.325Z,72.95
2022-09-12T13:09:19.415Z,73.04
2022-09-12T13:11:47.552Z,73.08
2022-09-12T13:14:35.639Z,72.98
2022-09-12T13:17:08.646Z,72.89
2022-09-12T13:19:38.238Z,72.59
2022-09-12T13:22:10.526Z,72.53
2022-09-12T13:24:48.997Z,72.72
2022-09-12T13:27:26.312Z,72.65
2022-09-12T13:30:09.831Z,72.58
2022-09-12T13:32:37.786Z,72.45
2022-09-12T13:35:28.691Z,72.30
2022-09-12T13:38:20.736Z,72.28
2022-09-12T13:41:22.484Z,72.22
2022-09-12T13:43:50.553Z,72.18
2022-09-12T13:46:28.429Z,72.09
2022-09-12T13:48:58.981Z,72.19
2022-09-12T13:51:30.535Z,72.14
2022-09-12T13:54:03.277Z,71.97
2022-09-12T13:56:31.323Z,71.86
2022-09-12T13:59:01.816Z,71.80
2022-09-12T14:01:40.499Z,71.72
2022-09-12T14:04:40.549Z,71.83
2022-09-12T14:07:21.215Z,71.71
2022-09-12T14:09:58.053Z,71.52
2022-09-12T14:12:28.723Z,71.56
2022-09-12T14:14:57.415Z,71.30
2022-09-12T14:17:32.996Z,71.35
2022-09-12T14:20:09.504Z,71.34
2022-09-12T14:22:38.933Z,71.31
2022-09-12T14:25:14.038Z,71.31
2022-09-12T14:27:47.981Z,71.18
2022-09-12T14:30:27.918Z,71.04
2022-09-12T14:33:11.148Z,71.07
2022-09-12T14:35:43.616Z,71.03
2022-09-12T14:38:17.733Z,71.10
2022-09-12T14:40:53.191Z,71.01
2022-09-12T14:43:23.593Z,71.11
2022-09-12T14:46:01.199Z,71.22
2022-09-12T14:48:34.331Z,71.10
2022-09-12T14:51:02.861Z,70.98
2022-09-12T14:53:32.770Z,71.03
2022-09-12T14:56:14.331Z,71.09
2022-09-12T14:58:42.623Z,71.02
2022-09-12T15:01:13.319Z,71.08
2022-09-12T15:03:49.997Z,71.14
2022-09-12T15:06:32.657Z,71.13
2022-09-12T15:09:06.958Z,71.18
2022-09-12T15:11:34.942Z,71.16
2022-09-12T15:14:29.038Z,71.14
2022-09-12T15:16:56.789Z,71.26
2022-09-12T15:19:24.647Z,71.33
2022-09-12T15:21:53.181Z,71.46
2022-09-12T15:24:21.016Z,71.35
2022-09-12T15:26:49.079Z,71.50
2022-09-12T15:29:16.826Z,71.62
2022-09-12T15:31:47.562Z,71.52
2022-09-12T15:34:15.628Z,71.62
2022-09-12T15:36:43.500Z,71.79
2022-09-12T15:39:12.179Z,71.77
2022-09-12T15:41:40.799Z,71.81
2022-09-12T15:44:12.825Z,71.93
2022-09-12T15:46:41.121Z,72.19
2022-09-12T15:49:09.124Z,72.14
2022-09-12T15:51:37.346Z,72.34
2022-09-12T15:54:05.520Z,72.26
2022-09-12T15:56:33.385Z,72.29
2022-09-12T15:59:01.352Z,72.47
2022-09-12T16:01:29.624Z,72.62
2022-09-12T16:03:57.933Z,72.49
2022-09-12T16:06:27.302Z,72.52
2022-09-12T16:08:55.483Z,72.51
2022-09-12T16:11:26.033Z,73.12
2022-09-12T16:13:55.303Z,73.39
2022-09-12T16:16:23.164Z,73.53
2022-09-12T16:18:51.035Z,73.79
2022-09-12T16:21:18.903Z,73.82
2022-09-12T16:23:48.123Z,73.77
2022-09-12T16:26:16.682Z,73.96
2022-09-12T16:28:45.006Z,74.08
2022-09-12T16:31:14.393Z,74.15
2022-09-12T16:33:42.426Z,74.38
2022-09-12T16:36:13.059Z,74.43
2022-09-12T16:38:42.578Z,74.80
2022-09-12T16:41:11.301Z,74.89
2022-09-12T16:43:39.914Z,74.69
2022-09-12T16:46:11.884Z,74.74
2022-09-12T16:48:52.602Z,74.99
2022-09-12T16:51:24.015Z,75.08
2022-09-12T16:53:52.515Z,75.33
2022-09-12T16:56:20.976Z,75.38
2022-09-12T16:58:49.015Z,75.17
2022-09-12T17:01:20.435Z,75.55
2022-09-12T17:03:48.945Z,75.53
2022-09-12T17:06:18.573Z,75.65
2022-09-12T17:08:49.383Z,75.75
2022-09-12T17:11:38.368Z,75.91
2022-09-12T17:14:08.386Z,75.81
2022-09-12T17:16:42.393Z,76.05
2022-09-12T17:19:26.797Z,76.16
2022-09-12T17:21:54.919Z,75.93
2022-09-12T17:24:23.298Z,76.36
2022-09-12T17:26:52.132Z,76.34
2022-09-12T17:29:20.406Z,76.45
2022-09-12T17:31:49.014Z,76.11
2022-09-12T17:34:17.982Z,76.15
2022-09-12T17:36:48.401Z,76.51
2022-09-12T17:39:16.333Z,76.59
2022-09-12T17:41:46.159Z,76.95
2022-09-12T17:44:15.239Z,76.97
2022-09-12T17:46:44.478Z,77.03
2022-09-12T17:49:15.073Z,76.70
2022-09-12T17:51:44.067Z,76.62
2022-09-12T17:54:18.474Z,77.04
2022-09-12T17:56:49.117Z,76.93
2022-09-12T17:59:24.598Z,77.27
2022-09-12T18:02:11.110Z,77.19
2022-09-12T18:04:45.964Z,77.54
2022-09-12T18:07:16.226Z,77.53
2022-09-12T18:09:44.730Z,77.42
2022-09-12T18:12:12.545Z,77.70
2022-09-12T18:14:41.168Z,77.59
2022-09-12T18:17:11.392Z,77.94
2022-09-12T18:19:39.420Z,77.75
2022-09-12T18:22:07.595Z,77.81
2022-09-12T18:24:36.025Z,77.55
2022-09-12T18:27:04.859Z,78.05
2022-09-12T18:29:32.827Z,78.06
2022-09-12T18:32:01.006Z,78.18
2022-09-12T18:34:28.972Z,78.36
2022-09-12T18:36:56.936Z,78.29
2022-09-12T18:39:27.745Z,78.46
2022-09-12T18:41:55.913Z,78.42
2022-09-12T18:44:23.671Z,78.55
2022-09-12T18:46:51.600Z,78.54
2022-09-12T18:49:19.335Z,78.93
2022-09-12T18:51:47.272Z,78.95
2022-09-12T18:54:15.579Z,78.91
2022-09-12T18:56:45.549Z,78.95
2022-09-12T18:59:15.082Z,79.27
2022-09-12T19:01:43.941Z,78.94
2022-09-12T19:04:13.287Z,79.02
2022-09-12T19:06:43.814Z,79.06
2022-09-12T19:09:14.460Z,79.06
2022-09-12T19:11:50.447Z,79.12
2022-09-12T19:14:22.593Z,79.25
2022-09-12T19:16:52.249Z,79.23
2022-09-12T19:19:21.130Z,79.45
2022-09-12T19:21:49.249Z,79.17
2022-09-12T19:24:17.361Z,79.24
2022-09-12T19:26:45.647Z,79.53
2022-09-12T19:29:14.884Z,79.51
2022-09-12T19:31:44.178Z,79.55
2022-09-12T19:34:14.809Z,79.61
2022-09-12T19:36:45.363Z,79.56
2022-09-12T19:39:16.374Z,79.42
2022-09-12T19:41:45.191Z,79.52
2022-09-12T19:44:13.759Z,79.86
2022-09-12T19:46:42.084Z,79.93
2022-09-12T19:49:11.550Z,79.58
2022-09-12T19:51:39.606Z,79.86
2022-09-12T19:54:07.970Z,79.82
2022-09-12T19:56:36.083Z,79.51
2022-09-12T19:59:04.461Z,79.78
2022-09-12T20:01:32.815Z,79.64
2022-09-12T20:04:00.666Z,79.77
2022-09-12T20:06:28.841Z,79.84
2022-09-12T20:08:56.707Z,79.83
2022-09-12T20:11:25.907Z,80.12
2022-09-12T20:13:54.084Z,80.23
2022-09-12T20:16:25.762Z,80.06
2022-09-12T20:18:56.459Z,80.12
2022-09-12T20:21:31.757Z,80.29
2022-09-12T20:24:10.523Z,80.13
2022-09-12T20:26:39.762Z,80.17
2022-09-12T20:29:08.812Z,80.14
2022-09-12T20:31:38.822Z,80.13
2022-09-12T20:34:08.234Z,80.18
2022-09-12T20:36:36.299Z,80.40
2022-09-12T20:39:05.151Z,80.37
2022-09-12T20:41:38.181Z,80.46
2022-09-12T20:44:06.351Z,80.47
2022-09-12T20:46:34.415Z,80.47
2022-09-12T20:49:03.119Z,80.42
2022-09-12T20:51:31.131Z,80.41
2022-09-12T20:54:01.294Z,80.47
2022-09-12T20:56:31.726Z,80.55
2022-09-12T20:58:59.792Z,80.57
2022-09-12T21:01:29.912Z,80.59
2022-09-12T21:03:59.925Z,80.60
2022-09-12T21:06:28.105Z,80.69
2022-09-12T21:09:00.791Z,80.65
2022-09-12T21:11:29.158Z,80.80
2022-09-12T21:13:58.246Z,80.78
2022-09-12T21:16:26.449Z,80.62
2022-09-12T21:18:57.304Z,80.72
2022-09-12T21:21:25.938Z,80.68
2022-09-12T21:23:57.265Z,80.74
2022-09-12T21:26:26.363Z,80.82
2022-09-12T21:28:54.572Z,80.75
2022-09-12T21:31:22.441Z,80.80
2022-09-12T21:33:51.203Z,80.70
2022-09-12T21:36:19.072Z,80.75
2022-09-12T21:38:46.935Z,80.80
2022-09-12T21:41:16.582Z,80.74
2022-09-12T21:43:45.251Z,80.43
2022-09-12T21:46:13.571Z,80.64
2022-09-12T21:48:46.082Z,80.78
2022-09-12T21:51:13.958Z,80.69
2022-09-12T21:53:41.958Z,80.83
2022-09-12T21:56:10.297Z,80.70
2022-09-12T21:58:38.590Z,80.52
2022-09-12T22:01:10.744Z,80.66
2022-09-12T22:03:38.943Z,80.53
2022-09-12T22:06:07.397Z,80.54
2022-09-12T22:08:37.553Z,80.61
2022-09-12T22:11:12.976Z,80.75
2022-09-12T22:13:43.489Z,80.79
2022-09-12T22:16:12.119Z,80.77
2022-09-12T22:18:40.032Z,80.57
2022-09-12T22:21:12.611Z,80.60
2022-09-12T22:23:59.262Z,80.66
2022-09-12T22:26:27.679Z,80.94
2022-09-12T22:28:55.918Z,80.84
2022-09-12T22:31:23.807Z,80.81
2022-09-12T22:33:51.723Z,80.73
2022-09-12T22:36:19.555Z,80.58
2022-09-12T22:38:47.568Z,80.67
2022-09-12T22:41:15.886Z,80.83
2022-09-12T22:43:43.673Z,81.08
2022-09-12T22:46:12.804Z,80.54
2022-09-12T22:48:41.590Z,80.90
2022-09-12T22:51:11.159Z,81.10
2022-09-12T22:53:39.225Z,80.93
2022-09-12T22:56:08.024Z,80.81
2022-09-12T22:58:42.124Z,80.96
2022-09-12T23:01:10.782Z,80.70
2022-09-12T23:03:39.091Z,81.11
2022-09-12T23:06:07.830Z,81.03
2022-09-12T23:08:37.178Z,80.77
2022-09-12T23:11:09.542Z,80.87
2022-09-12T23:13:38.839Z,81.51
2022-09-12T23:16:08.239Z,80.66
2022-09-12T23:18:37.029Z,80.77
2022-09-12T23:21:10.480Z,81.12
2022-09-12T23:23:39.312Z,80.68
2022-09-12T23:26:11.183Z,81.20
2022-09-12T23:28:40.578Z,81.02
2022-09-12T23:31:12.097Z,80.98
2022-09-12T23:33:40.502Z,81.02
2022-09-12T23:36:14.326Z,80.96
2022-09-12T23:38:45.232Z,80.99
2022-09-12T23:41:17.822Z,80.99
2022-09-12T23:43:46.220Z,81.05
2022-09-12T23:46:15.604Z,81.08
2022-09-12T23:48:44.563Z,80.92
2022-09-12T23:51:13.978Z,80.85
2022-09-12T23:53:42.068Z,81.03
2022-09-12T23:56:10.137Z,81.24
2022-09-12T23:58:38.144Z,80.77
